Cohagen, Montana
Current Conditions -  °F | °C
As of 6:53 AM on Thursday 30 Oct 2014 (Local Time) from KMLS Reporting Station
Clear Clear  
Wind Chill: 23°   Ceiling: Unl
Heat Index: 28°   Visibility: 10mi
Dew Point: 26°   Wind: 5mph
Humidity: 92%   Direction: 320°NW
Pressure: 30.28"   Gusts: NA
Location:  47.05°N, 106.62°W
Report Text: KMLS 301253Z AUTO 32004KT 10SM CLR M02/M03 A3028 RMK AO2 SLP270 T10221033
Loading
Personal Weather Stations






























Interactive Weather Map
Tropical Storm Tracking
New forecast layout! Learn more

10-Day Weather Forecast

Advertisements
Track Severe Weather on mobile